sensor_id;sensor_type;location;lat;lon;timestamp;P1;durP1;ratioP1;P2;durP2;ratioP2
37903;SDS011;23738;50.422;18.758;2023-07-28T00:00:08;2.40;;;1.50;;
37903;SDS011;23738;50.422;18.758;2023-07-28T00:02:39;2.00;;;1.70;;
37903;SDS011;23738;50.422;18.758;2023-07-28T00:05:08;2.00;;;1.80;;
37903;SDS011;23738;50.422;18.758;2023-07-28T00:07:37;2.30;;;1.50;;
37903;SDS011;23738;50.422;18.758;2023-07-28T00:10:07;3.10;;;1.90;;
37903;SDS011;23738;50.422;18.758;2023-07-28T00:12:38;2.40;;;1.60;;
37903;SDS011;23738;50.422;18.758;2023-07-28T00:15:08;2.00;;;1.60;;
37903;SDS011;23738;50.422;18.758;2023-07-28T00:17:37;2.90;;;1.60;;
37903;SDS011;23738;50.422;18.758;2023-07-28T00:20:10;1.80;;;1.60;;
37903;SDS011;23738;50.422;18.758;2023-07-28T00:22:40;2.60;;;1.40;;
37903;SDS011;23738;50.422;18.758;2023-07-28T00:25:09;2.30;;;1.60;;
37903;SDS011;23738;50.422;18.758;2023-07-28T00:27:39;1.80;;;1.50;;
37903;SDS011;23738;50.422;18.758;2023-07-28T00:30:09;2.20;;;1.40;;
37903;SDS011;23738;50.422;18.758;2023-07-28T00:32:39;2.10;;;1.60;;
37903;SDS011;23738;50.422;18.758;2023-07-28T00:35:09;1.80;;;1.30;;
37903;SDS011;23738;50.422;18.758;2023-07-28T00:37:38;1.70;;;1.30;;
37903;SDS011;23738;50.422;18.758;2023-07-28T00:40:08;1.70;;;1.20;;
37903;SDS011;23738;50.422;18.758;2023-07-28T00:42:39;1.40;;;1.20;;
37903;SDS011;23738;50.422;18.758;2023-07-28T00:45:09;1.50;;;1.40;;
37903;SDS011;23738;50.422;18.758;2023-07-28T00:47:39;1.50;;;1.40;;
37903;SDS011;23738;50.422;18.758;2023-07-28T00:50:09;2.70;;;1.40;;
37903;SDS011;23738;50.422;18.758;2023-07-28T00:52:39;2.20;;;1.60;;
37903;SDS011;23738;50.422;18.758;2023-07-28T00:55:09;2.70;;;1.70;;
37903;SDS011;23738;50.422;18.758;2023-07-28T00:57:39;5.70;;;1.50;;
37903;SDS011;23738;50.422;18.758;2023-07-28T01:00:10;3.00;;;1.50;;
37903;SDS011;23738;50.422;18.758;2023-07-28T01:02:40;3.20;;;1.40;;
37903;SDS011;23738;50.422;18.758;2023-07-28T01:05:10;2.60;;;1.60;;
37903;SDS011;23738;50.422;18.758;2023-07-28T01:07:41;2.80;;;1.50;;
37903;SDS011;23738;50.422;18.758;2023-07-28T01:10:16;1.80;;;1.30;;
37903;SDS011;23738;50.422;18.758;2023-07-28T01:12:49;2.50;;;1.50;;
37903;SDS011;23738;50.422;18.758;2023-07-28T01:15:18;2.20;;;1.50;;
37903;SDS011;23738;50.422;18.758;2023-07-28T01:17:48;2.80;;;1.50;;
37903;SDS011;23738;50.422;18.758;2023-07-28T01:20:17;1.50;;;1.30;;
37903;SDS011;23738;50.422;18.758;2023-07-28T01:22:55;1.60;;;1.40;;
37903;SDS011;23738;50.422;18.758;2023-07-28T01:25:39;1.90;;;1.60;;
37903;SDS011;23738;50.422;18.758;2023-07-28T01:28:16;4.10;;;1.60;;
37903;SDS011;23738;50.422;18.758;2023-07-28T01:30:46;1.70;;;1.50;;
37903;SDS011;23738;50.422;18.758;2023-07-28T01:33:15;1.90;;;1.50;;
37903;SDS011;23738;50.422;18.758;2023-07-28T01:35:45;1.90;;;1.20;;
37903;SDS011;23738;50.422;18.758;2023-07-28T01:38:14;1.80;;;1.60;;
37903;SDS011;23738;50.422;18.758;2023-07-28T01:40:44;1.60;;;1.30;;
37903;SDS011;23738;50.422;18.758;2023-07-28T01:43:13;1.80;;;1.30;;
37903;SDS011;23738;50.422;18.758;2023-07-28T01:45:42;1.70;;;1.30;;
37903;SDS011;23738;50.422;18.758;2023-07-28T01:48:12;1.60;;;1.30;;
37903;SDS011;23738;50.422;18.758;2023-07-28T01:50:41;1.80;;;1.40;;
37903;SDS011;23738;50.422;18.758;2023-07-28T01:53:10;3.20;;;1.20;;
37903;SDS011;23738;50.422;18.758;2023-07-28T01:55:40;1.50;;;1.30;;
37903;SDS011;23738;50.422;18.758;2023-07-28T01:58:09;3.20;;;1.50;;
37903;SDS011;23738;50.422;18.758;2023-07-28T02:00:38;3.70;;;1.50;;
37903;SDS011;23738;50.422;18.758;2023-07-28T02:03:08;1.70;;;1.30;;
37903;SDS011;23738;50.422;18.758;2023-07-28T02:05:37;1.80;;;1.40;;
37903;SDS011;23738;50.422;18.758;2023-07-28T02:08:06;1.50;;;1.30;;
37903;SDS011;23738;50.422;18.758;2023-07-28T02:10:36;1.80;;;1.30;;
37903;SDS011;23738;50.422;18.758;2023-07-28T02:13:05;2.40;;;1.40;;
37903;SDS011;23738;50.422;18.758;2023-07-28T02:15:34;2.80;;;1.30;;
37903;SDS011;23738;50.422;18.758;2023-07-28T02:18:04;2.00;;;1.50;;
37903;SDS011;23738;50.422;18.758;2023-07-28T02:20:33;1.80;;;1.40;;
37903;SDS011;23738;50.422;18.758;2023-07-28T02:23:04;1.70;;;1.30;;
37903;SDS011;23738;50.422;18.758;2023-07-28T02:25:33;2.80;;;1.60;;
37903;SDS011;23738;50.422;18.758;2023-07-28T02:28:02;1.90;;;1.40;;
37903;SDS011;23738;50.422;18.758;2023-07-28T02:30:32;3.50;;;1.60;;
37903;SDS011;23738;50.422;18.758;2023-07-28T02:33:02;2.60;;;1.50;;
37903;SDS011;23738;50.422;18.758;2023-07-28T02:35:31;1.80;;;1.50;;
37903;SDS011;23738;50.422;18.758;2023-07-28T02:38:01;1.40;;;1.20;;
37903;SDS011;23738;50.422;18.758;2023-07-28T02:40:31;2.40;;;1.50;;
37903;SDS011;23738;50.422;18.758;2023-07-28T02:43:01;1.80;;;1.60;;
37903;SDS011;23738;50.422;18.758;2023-07-28T02:45:30;1.80;;;1.40;;
37903;SDS011;23738;50.422;18.758;2023-07-28T02:47:59;2.40;;;1.90;;
37903;SDS011;23738;50.422;18.758;2023-07-28T02:50:28;2.30;;;1.60;;
37903;SDS011;23738;50.422;18.758;2023-07-28T02:52:58;2.40;;;1.40;;
37903;SDS011;23738;50.422;18.758;2023-07-28T02:55:27;1.70;;;1.10;;
37903;SDS011;23738;50.422;18.758;2023-07-28T02:57:56;3.20;;;1.70;;
37903;SDS011;23738;50.422;18.758;2023-07-28T03:00:25;3.30;;;2.00;;
37903;SDS011;23738;50.422;18.758;2023-07-28T03:02:54;3.00;;;1.60;;
37903;SDS011;23738;50.422;18.758;2023-07-28T03:05:24;2.50;;;1.80;;
37903;SDS011;23738;50.422;18.758;2023-07-28T03:07:53;2.50;;;1.90;;
37903;SDS011;23738;50.422;18.758;2023-07-28T03:10:22;2.70;;;1.50;;
37903;SDS011;23738;50.422;18.758;2023-07-28T03:12:52;2.90;;;2.00;;
37903;SDS011;23738;50.422;18.758;2023-07-28T03:15:22;2.00;;;1.50;;
37903;SDS011;23738;50.422;18.758;2023-07-28T03:17:51;2.70;;;1.60;;
37903;SDS011;23738;50.422;18.758;2023-07-28T03:20:21;2.50;;;1.80;;
37903;SDS011;23738;50.422;18.758;2023-07-28T03:22:51;4.50;;;1.90;;
37903;SDS011;23738;50.422;18.758;2023-07-28T03:25:21;4.00;;;1.50;;
37903;SDS011;23738;50.422;18.758;2023-07-28T03:27:50;2.90;;;1.70;;
37903;SDS011;23738;50.422;18.758;2023-07-28T03:30:20;2.70;;;1.70;;
37903;SDS011;23738;50.422;18.758;2023-07-28T03:32:49;2.30;;;1.50;;
37903;SDS011;23738;50.422;18.758;2023-07-28T03:35:18;2.40;;;1.50;;
37903;SDS011;23738;50.422;18.758;2023-07-28T03:37:48;1.80;;;1.60;;
37903;SDS011;23738;50.422;18.758;2023-07-28T03:40:17;2.70;;;1.70;;
37903;SDS011;23738;50.422;18.758;2023-07-28T03:42:46;1.90;;;1.50;;
37903;SDS011;23738;50.422;18.758;2023-07-28T03:45:16;2.10;;;1.50;;
37903;SDS011;23738;50.422;18.758;2023-07-28T03:47:45;2.40;;;1.70;;
37903;SDS011;23738;50.422;18.758;2023-07-28T03:50:15;1.50;;;1.40;;
37903;SDS011;23738;50.422;18.758;2023-07-28T03:52:44;2.90;;;1.90;;
37903;SDS011;23738;50.422;18.758;2023-07-28T03:55:14;2.20;;;1.60;;
37903;SDS011;23738;50.422;18.758;2023-07-28T03:57:43;2.30;;;1.60;;
37903;SDS011;23738;50.422;18.758;2023-07-28T04:00:13;2.10;;;1.60;;
37903;SDS011;23738;50.422;18.758;2023-07-28T04:02:43;2.10;;;1.80;;
37903;SDS011;23738;50.422;18.758;2023-07-28T04:05:12;1.80;;;1.50;;
37903;SDS011;23738;50.422;18.758;2023-07-28T04:07:42;3.00;;;1.90;;
37903;SDS011;23738;50.422;18.758;2023-07-28T04:10:11;1.50;;;1.40;;
37903;SDS011;23738;50.422;18.758;2023-07-28T04:12:41;2.00;;;1.50;;
37903;SDS011;23738;50.422;18.758;2023-07-28T04:15:11;2.40;;;1.40;;
37903;SDS011;23738;50.422;18.758;2023-07-28T04:17:40;2.40;;;1.40;;
37903;SDS011;23738;50.422;18.758;2023-07-28T04:20:10;2.70;;;1.30;;
37903;SDS011;23738;50.422;18.758;2023-07-28T04:22:40;2.40;;;1.70;;
37903;SDS011;23738;50.422;18.758;2023-07-28T04:25:10;1.90;;;1.40;;
37903;SDS011;23738;50.422;18.758;2023-07-28T04:27:39;2.20;;;1.80;;
37903;SDS011;23738;50.422;18.758;2023-07-28T04:30:09;2.30;;;1.50;;
37903;SDS011;23738;50.422;18.758;2023-07-28T04:32:39;2.20;;;1.40;;
37903;SDS011;23738;50.422;18.758;2023-07-28T04:35:08;1.60;;;1.40;;
37903;SDS011;23738;50.422;18.758;2023-07-28T04:37:38;2.90;;;1.80;;
37903;SDS011;23738;50.422;18.758;2023-07-28T04:40:08;1.60;;;1.30;;
37903;SDS011;23738;50.422;18.758;2023-07-28T04:42:38;4.40;;;1.80;;
37903;SDS011;23738;50.422;18.758;2023-07-28T04:45:09;3.40;;;1.80;;
37903;SDS011;23738;50.422;18.758;2023-07-28T04:47:38;2.40;;;1.50;;
37903;SDS011;23738;50.422;18.758;2023-07-28T04:50:08;2.80;;;1.60;;
37903;SDS011;23738;50.422;18.758;2023-07-28T04:52:38;3.10;;;1.40;;
37903;SDS011;23738;50.422;18.758;2023-07-28T04:55:08;1.70;;;1.10;;
37903;SDS011;23738;50.422;18.758;2023-07-28T04:57:37;1.50;;;1.20;;
37903;SDS011;23738;50.422;18.758;2023-07-28T05:00:08;1.70;;;1.40;;
37903;SDS011;23738;50.422;18.758;2023-07-28T05:02:38;2.40;;;1.60;;
37903;SDS011;23738;50.422;18.758;2023-07-28T05:05:08;2.20;;;1.80;;
37903;SDS011;23738;50.422;18.758;2023-07-28T05:07:37;2.00;;;1.50;;
37903;SDS011;23738;50.422;18.758;2023-07-28T05:10:07;2.20;;;1.30;;
37903;SDS011;23738;50.422;18.758;2023-07-28T05:12:37;1.90;;;1.70;;
37903;SDS011;23738;50.422;18.758;2023-07-28T05:15:07;4.00;;;1.50;;
37903;SDS011;23738;50.422;18.758;2023-07-28T05:17:37;3.10;;;1.70;;
37903;SDS011;23738;50.422;18.758;2023-07-28T05:20:07;1.80;;;1.40;;
37903;SDS011;23738;50.422;18.758;2023-07-28T05:22:37;4.90;;;1.50;;
37903;SDS011;23738;50.422;18.758;2023-07-28T05:25:08;1.80;;;1.40;;
37903;SDS011;23738;50.422;18.758;2023-07-28T05:27:37;1.60;;;1.40;;
37903;SDS011;23738;50.422;18.758;2023-07-28T05:30:08;3.00;;;1.60;;
37903;SDS011;23738;50.422;18.758;2023-07-28T05:32:37;2.80;;;1.70;;
37903;SDS011;23738;50.422;18.758;2023-07-28T05:35:07;2.80;;;1.70;;
37903;SDS011;23738;50.422;18.758;2023-07-28T05:37:37;2.20;;;1.70;;
37903;SDS011;23738;50.422;18.758;2023-07-28T05:40:07;1.80;;;1.60;;
37903;SDS011;23738;50.422;18.758;2023-07-28T05:42:38;2.20;;;1.70;;
37903;SDS011;23738;50.422;18.758;2023-07-28T05:45:09;1.60;;;1.20;;
37903;SDS011;23738;50.422;18.758;2023-07-28T05:47:38;1.80;;;1.30;;
37903;SDS011;23738;50.422;18.758;2023-07-28T05:50:09;2.10;;;1.60;;
37903;SDS011;23738;50.422;18.758;2023-07-28T05:52:38;2.10;;;1.50;;
37903;SDS011;23738;50.422;18.758;2023-07-28T05:55:08;3.30;;;1.80;;
37903;SDS011;23738;50.422;18.758;2023-07-28T05:57:38;3.40;;;1.80;;
37903;SDS011;23738;50.422;18.758;2023-07-28T06:00:08;3.00;;;1.60;;
37903;SDS011;23738;50.422;18.758;2023-07-28T06:02:38;2.30;;;1.60;;
37903;SDS011;23738;50.422;18.758;2023-07-28T06:05:08;2.00;;;1.70;;
37903;SDS011;23738;50.422;18.758;2023-07-28T06:07:38;3.20;;;2.10;;
37903;SDS011;23738;50.422;18.758;2023-07-28T06:10:08;2.60;;;1.70;;
37903;SDS011;23738;50.422;18.758;2023-07-28T06:12:37;1.90;;;1.50;;
37903;SDS011;23738;50.422;18.758;2023-07-28T06:15:08;2.70;;;1.90;;
37903;SDS011;23738;50.422;18.758;2023-07-28T06:17:37;2.60;;;1.90;;
37903;SDS011;23738;50.422;18.758;2023-07-28T06:20:08;2.50;;;2.20;;
37903;SDS011;23738;50.422;18.758;2023-07-28T06:22:38;2.80;;;1.60;;
37903;SDS011;23738;50.422;18.758;2023-07-28T06:25:08;2.70;;;1.90;;
37903;SDS011;23738;50.422;18.758;2023-07-28T06:27:37;2.60;;;1.90;;
37903;SDS011;23738;50.422;18.758;2023-07-28T06:30:08;2.70;;;2.00;;
37903;SDS011;23738;50.422;18.758;2023-07-28T06:32:38;2.50;;;2.10;;
37903;SDS011;23738;50.422;18.758;2023-07-28T06:35:08;2.40;;;2.20;;
37903;SDS011;23738;50.422;18.758;2023-07-28T06:37:38;2.30;;;2.10;;
37903;SDS011;23738;50.422;18.758;2023-07-28T06:40:08;2.40;;;1.90;;
37903;SDS011;23738;50.422;18.758;2023-07-28T06:42:38;3.00;;;1.90;;
37903;SDS011;23738;50.422;18.758;2023-07-28T06:45:08;3.70;;;1.70;;
37903;SDS011;23738;50.422;18.758;2023-07-28T06:47:38;2.10;;;1.60;;
37903;SDS011;23738;50.422;18.758;2023-07-28T06:50:08;3.40;;;1.50;;
37903;SDS011;23738;50.422;18.758;2023-07-28T06:52:38;2.10;;;1.80;;
37903;SDS011;23738;50.422;18.758;2023-07-28T06:55:08;1.70;;;1.40;;
37903;SDS011;23738;50.422;18.758;2023-07-28T06:57:38;1.90;;;1.70;;
37903;SDS011;23738;50.422;18.758;2023-07-28T07:00:08;1.80;;;1.40;;
37903;SDS011;23738;50.422;18.758;2023-07-28T07:02:39;2.40;;;1.40;;
37903;SDS011;23738;50.422;18.758;2023-07-28T07:05:08;1.80;;;1.40;;
37903;SDS011;23738;50.422;18.758;2023-07-28T07:07:38;3.70;;;1.60;;
37903;SDS011;23738;50.422;18.758;2023-07-28T07:10:09;2.50;;;1.60;;
37903;SDS011;23738;50.422;18.758;2023-07-28T07:12:38;2.20;;;2.00;;
37903;SDS011;23738;50.422;18.758;2023-07-28T07:15:08;1.90;;;1.70;;
37903;SDS011;23738;50.422;18.758;2023-07-28T07:17:38;1.90;;;1.70;;
37903;SDS011;23738;50.422;18.758;2023-07-28T07:20:08;1.80;;;1.70;;
37903;SDS011;23738;50.422;18.758;2023-07-28T07:22:38;2.30;;;1.80;;
37903;SDS011;23738;50.422;18.758;2023-07-28T07:25:08;2.70;;;2.00;;
37903;SDS011;23738;50.422;18.758;2023-07-28T07:27:37;3.20;;;2.00;;
37903;SDS011;23738;50.422;18.758;2023-07-28T07:30:08;2.50;;;1.90;;
37903;SDS011;23738;50.422;18.758;2023-07-28T07:32:38;1.70;;;1.60;;
37903;SDS011;23738;50.422;18.758;2023-07-28T07:35:08;2.20;;;1.70;;
37903;SDS011;23738;50.422;18.758;2023-07-28T07:37:38;3.40;;;2.00;;
37903;SDS011;23738;50.422;18.758;2023-07-28T07:40:09;2.20;;;1.80;;
37903;SDS011;23738;50.422;18.758;2023-07-28T07:42:45;3.50;;;1.50;;
37903;SDS011;23738;50.422;18.758;2023-07-28T07:45:15;2.00;;;1.80;;
37903;SDS011;23738;50.422;18.758;2023-07-28T07:47:44;2.70;;;1.90;;
37903;SDS011;23738;50.422;18.758;2023-07-28T07:50:14;4.00;;;2.40;;
37903;SDS011;23738;50.422;18.758;2023-07-28T07:52:44;4.30;;;2.40;;
37903;SDS011;23738;50.422;18.758;2023-07-28T07:55:13;4.50;;;2.70;;
37903;SDS011;23738;50.422;18.758;2023-07-28T07:57:43;2.60;;;2.10;;
37903;SDS011;23738;50.422;18.758;2023-07-28T08:00:13;2.50;;;2.00;;
37903;SDS011;23738;50.422;18.758;2023-07-28T08:02:43;5.20;;;2.20;;
37903;SDS011;23738;50.422;18.758;2023-07-28T08:05:13;2.60;;;2.10;;
37903;SDS011;23738;50.422;18.758;2023-07-28T08:07:42;3.50;;;3.20;;
37903;SDS011;23738;50.422;18.758;2023-07-28T08:10:13;2.70;;;2.40;;
37903;SDS011;23738;50.422;18.758;2023-07-28T08:12:43;4.80;;;3.90;;
37903;SDS011;23738;50.422;18.758;2023-07-28T08:15:13;2.80;;;2.60;;
37903;SDS011;23738;50.422;18.758;2023-07-28T08:17:43;2.60;;;2.40;;
37903;SDS011;23738;50.422;18.758;2023-07-28T08:20:12;4.10;;;2.90;;
37903;SDS011;23738;50.422;18.758;2023-07-28T08:22:42;3.00;;;2.70;;
37903;SDS011;23738;50.422;18.758;2023-07-28T08:25:11;3.70;;;3.20;;
37903;SDS011;23738;50.422;18.758;2023-07-28T08:27:40;3.80;;;2.70;;
37903;SDS011;23738;50.422;18.758;2023-07-28T08:30:11;2.70;;;2.50;;
37903;SDS011;23738;50.422;18.758;2023-07-28T08:32:41;3.40;;;3.10;;
37903;SDS011;23738;50.422;18.758;2023-07-28T08:35:11;4.20;;;3.60;;
37903;SDS011;23738;50.422;18.758;2023-07-28T08:37:40;3.70;;;2.70;;
37903;SDS011;23738;50.422;18.758;2023-07-28T08:40:10;3.70;;;3.00;;
37903;SDS011;23738;50.422;18.758;2023-07-28T08:42:40;4.80;;;3.00;;
37903;SDS011;23738;50.422;18.758;2023-07-28T08:45:11;4.20;;;3.60;;
37903;SDS011;23738;50.422;18.758;2023-07-28T08:47:40;3.30;;;3.00;;
37903;SDS011;23738;50.422;18.758;2023-07-28T08:50:10;4.30;;;3.10;;
37903;SDS011;23738;50.422;18.758;2023-07-28T08:52:40;5.10;;;2.60;;
37903;SDS011;23738;50.422;18.758;2023-07-28T08:55:10;5.70;;;2.60;;
37903;SDS011;23738;50.422;18.758;2023-07-28T08:57:40;4.40;;;3.00;;
37903;SDS011;23738;50.422;18.758;2023-07-28T09:00:10;3.60;;;3.30;;
37903;SDS011;23738;50.422;18.758;2023-07-28T09:02:41;3.40;;;3.10;;
37903;SDS011;23738;50.422;18.758;2023-07-28T09:05:17;3.50;;;2.80;;
37903;SDS011;23738;50.422;18.758;2023-07-28T09:07:50;4.50;;;3.20;;
37903;SDS011;23738;50.422;18.758;2023-07-28T09:10:19;3.30;;;3.00;;
37903;SDS011;23738;50.422;18.758;2023-07-28T09:12:49;4.10;;;3.10;;
37903;SDS011;23738;50.422;18.758;2023-07-28T09:15:20;4.40;;;3.50;;
37903;SDS011;23738;50.422;18.758;2023-07-28T09:17:49;3.50;;;3.10;;
37903;SDS011;23738;50.422;18.758;2023-07-28T09:20:18;4.20;;;2.90;;
37903;SDS011;23738;50.422;18.758;2023-07-28T09:22:48;2.70;;;2.30;;
37903;SDS011;23738;50.422;18.758;2023-07-28T09:25:20;4.40;;;2.50;;
37903;SDS011;23738;50.422;18.758;2023-07-28T09:27:50;4.30;;;2.90;;
37903;SDS011;23738;50.422;18.758;2023-07-28T09:30:20;2.90;;;2.60;;
37903;SDS011;23738;50.422;18.758;2023-07-28T09:32:51;5.20;;;2.50;;
37903;SDS011;23738;50.422;18.758;2023-07-28T09:35:22;3.30;;;2.60;;
37903;SDS011;23738;50.422;18.758;2023-07-28T09:37:51;4.10;;;2.30;;
37903;SDS011;23738;50.422;18.758;2023-07-28T09:40:21;2.90;;;2.60;;
37903;SDS011;23738;50.422;18.758;2023-07-28T09:42:51;3.00;;;2.20;;
37903;SDS011;23738;50.422;18.758;2023-07-28T09:45:21;2.40;;;2.20;;
37903;SDS011;23738;50.422;18.758;2023-07-28T09:47:52;2.60;;;2.30;;
37903;SDS011;23738;50.422;18.758;2023-07-28T09:50:25;2.80;;;2.40;;
37903;SDS011;23738;50.422;18.758;2023-07-28T09:53:01;2.80;;;2.30;;
37903;SDS011;23738;50.422;18.758;2023-07-28T09:55:31;2.90;;;2.20;;
37903;SDS011;23738;50.422;18.758;2023-07-28T09:58:03;3.20;;;2.00;;
37903;SDS011;23738;50.422;18.758;2023-07-28T10:00:35;2.50;;;2.30;;
37903;SDS011;23738;50.422;18.758;2023-07-28T10:03:05;4.50;;;2.60;;
37903;SDS011;23738;50.422;18.758;2023-07-28T10:05:36;3.00;;;2.20;;
37903;SDS011;23738;50.422;18.758;2023-07-28T10:08:06;2.70;;;2.50;;
37903;SDS011;23738;50.422;18.758;2023-07-28T10:10:36;2.80;;;2.50;;
37903;SDS011;23738;50.422;18.758;2023-07-28T10:13:18;2.50;;;2.30;;
37903;SDS011;23738;50.422;18.758;2023-07-28T10:15:49;2.30;;;2.10;;
37903;SDS011;23738;50.422;18.758;2023-07-28T10:18:20;4.10;;;2.20;;
37903;SDS011;23738;50.422;18.758;2023-07-28T10:20:50;2.50;;;2.30;;
37903;SDS011;23738;50.422;18.758;2023-07-28T10:23:19;2.60;;;2.40;;
37903;SDS011;23738;50.422;18.758;2023-07-28T10:25:56;3.00;;;2.70;;
37903;SDS011;23738;50.422;18.758;2023-07-28T10:28:28;3.20;;;2.00;;
37903;SDS011;23738;50.422;18.758;2023-07-28T10:30:58;2.60;;;2.40;;
37903;SDS011;23738;50.422;18.758;2023-07-28T10:33:32;2.50;;;2.30;;
37903;SDS011;23738;50.422;18.758;2023-07-28T10:36:15;2.30;;;2.10;;
37903;SDS011;23738;50.422;18.758;2023-07-28T10:38:45;2.20;;;2.00;;
37903;SDS011;23738;50.422;18.758;2023-07-28T10:41:26;2.50;;;1.90;;
37903;SDS011;23738;50.422;18.758;2023-07-28T10:43:57;3.40;;;2.20;;
37903;SDS011;23738;50.422;18.758;2023-07-28T10:46:27;3.80;;;2.00;;
37903;SDS011;23738;50.422;18.758;2023-07-28T10:48:57;4.10;;;2.20;;
37903;SDS011;23738;50.422;18.758;2023-07-28T10:51:35;2.90;;;2.30;;
37903;SDS011;23738;50.422;18.758;2023-07-28T10:54:06;2.30;;;2.10;;
37903;SDS011;23738;50.422;18.758;2023-07-28T10:56:36;2.40;;;1.80;;
37903;SDS011;23738;50.422;18.758;2023-07-28T10:59:05;2.80;;;2.10;;
37903;SDS011;23738;50.422;18.758;2023-07-28T11:01:34;2.90;;;2.20;;
37903;SDS011;23738;50.422;18.758;2023-07-28T11:04:09;2.10;;;1.90;;
37903;SDS011;23738;50.422;18.758;2023-07-28T11:06:41;5.40;;;1.90;;
37903;SDS011;23738;50.422;18.758;2023-07-28T11:09:12;2.60;;;1.80;;
37903;SDS011;23738;50.422;18.758;2023-07-28T11:11:43;2.40;;;2.00;;
37903;SDS011;23738;50.422;18.758;2023-07-28T11:14:14;5.60;;;2.10;;
37903;SDS011;23738;50.422;18.758;2023-07-28T11:16:44;8.50;;;1.90;;
37903;SDS011;23738;50.422;18.758;2023-07-28T11:19:15;2.70;;;1.90;;
37903;SDS011;23738;50.422;18.758;2023-07-28T11:21:50;2.40;;;1.70;;
37903;SDS011;23738;50.422;18.758;2023-07-28T11:24:20;3.00;;;1.80;;
37903;SDS011;23738;50.422;18.758;2023-07-28T11:26:50;1.80;;;1.70;;
37903;SDS011;23738;50.422;18.758;2023-07-28T11:29:19;3.10;;;1.90;;
37903;SDS011;23738;50.422;18.758;2023-07-28T11:31:49;5.20;;;2.20;;
37903;SDS011;23738;50.422;18.758;2023-07-28T11:34:19;2.80;;;2.20;;
37903;SDS011;23738;50.422;18.758;2023-07-28T11:36:49;2.50;;;1.60;;
37903;SDS011;23738;50.422;18.758;2023-07-28T11:39:18;1.50;;;1.40;;
37903;SDS011;23738;50.422;18.758;2023-07-28T11:41:48;1.70;;;1.40;;
37903;SDS011;23738;50.422;18.758;2023-07-28T11:44:20;1.50;;;1.20;;
37903;SDS011;23738;50.422;18.758;2023-07-28T11:46:50;1.60;;;1.20;;
37903;SDS011;23738;50.422;18.758;2023-07-28T11:49:21;2.20;;;0.90;;
37903;SDS011;23738;50.422;18.758;2023-07-28T11:51:51;2.60;;;1.70;;
37903;SDS011;23738;50.422;18.758;2023-07-28T11:54:25;1.30;;;1.00;;
37903;SDS011;23738;50.422;18.758;2023-07-28T11:56:56;2.30;;;1.10;;
37903;SDS011;23738;50.422;18.758;2023-07-28T11:59:26;1.80;;;1.20;;
37903;SDS011;23738;50.422;18.758;2023-07-28T12:01:56;1.20;;;0.90;;
37903;SDS011;23738;50.422;18.758;2023-07-28T12:04:26;2.60;;;1.10;;
37903;SDS011;23738;50.422;18.758;2023-07-28T12:07:04;1.80;;;1.00;;
37903;SDS011;23738;50.422;18.758;2023-07-28T12:09:48;1.70;;;1.00;;
37903;SDS011;23738;50.422;18.758;2023-07-28T12:12:19;1.30;;;0.80;;
37903;SDS011;23738;50.422;18.758;2023-07-28T12:14:50;2.00;;;0.90;;
37903;SDS011;23738;50.422;18.758;2023-07-28T12:17:20;0.70;;;0.70;;
37903;SDS011;23738;50.422;18.758;2023-07-28T12:20:01;1.10;;;0.50;;
37903;SDS011;23738;50.422;18.758;2023-07-28T12:22:36;1.10;;;0.80;;
37903;SDS011;23738;50.422;18.758;2023-07-28T12:25:07;1.20;;;0.60;;
37903;SDS011;23738;50.422;18.758;2023-07-28T12:27:37;1.00;;;0.70;;
37903;SDS011;23738;50.422;18.758;2023-07-28T12:30:08;1.80;;;0.70;;
37903;SDS011;23738;50.422;18.758;2023-07-28T12:32:38;1.80;;;0.70;;
37903;SDS011;23738;50.422;18.758;2023-07-28T12:35:08;3.80;;;0.60;;
37903;SDS011;23738;50.422;18.758;2023-07-28T12:37:37;2.00;;;0.60;;
37903;SDS011;23738;50.422;18.758;2023-07-28T12:40:08;1.60;;;0.80;;
37903;SDS011;23738;50.422;18.758;2023-07-28T12:42:38;2.00;;;1.00;;
37903;SDS011;23738;50.422;18.758;2023-07-28T12:45:08;1.10;;;0.70;;
37903;SDS011;23738;50.422;18.758;2023-07-28T12:47:38;1.00;;;0.70;;
37903;SDS011;23738;50.422;18.758;2023-07-28T12:50:08;1.00;;;0.70;;
37903;SDS011;23738;50.422;18.758;2023-07-28T12:52:38;0.90;;;0.70;;
37903;SDS011;23738;50.422;18.758;2023-07-28T12:55:08;0.90;;;0.60;;
37903;SDS011;23738;50.422;18.758;2023-07-28T12:57:38;1.40;;;0.60;;
37903;SDS011;23738;50.422;18.758;2023-07-28T13:00:08;0.70;;;0.50;;
37903;SDS011;23738;50.422;18.758;2023-07-28T13:02:40;0.90;;;0.70;;
37903;SDS011;23738;50.422;18.758;2023-07-28T13:05:10;4.80;;;0.50;;
37903;SDS011;23738;50.422;18.758;2023-07-28T13:07:42;0.70;;;0.70;;
37903;SDS011;23738;50.422;18.758;2023-07-28T13:10:11;0.50;;;0.50;;
37903;SDS011;23738;50.422;18.758;2023-07-28T13:12:41;0.40;;;0.40;;
37903;SDS011;23738;50.422;18.758;2023-07-28T13:15:10;1.20;;;0.60;;
37903;SDS011;23738;50.422;18.758;2023-07-28T13:17:40;0.40;;;0.40;;
37903;SDS011;23738;50.422;18.758;2023-07-28T13:20:10;3.10;;;0.50;;
37903;SDS011;23738;50.422;18.758;2023-07-28T13:22:39;2.10;;;0.30;;
37903;SDS011;23738;50.422;18.758;2023-07-28T13:25:09;0.50;;;0.50;;
37903;SDS011;23738;50.422;18.758;2023-07-28T13:27:38;0.40;;;0.40;;
37903;SDS011;23738;50.422;18.758;2023-07-28T13:30:09;0.60;;;0.40;;
37903;SDS011;23738;50.422;18.758;2023-07-28T13:32:39;0.60;;;0.40;;
37903;SDS011;23738;50.422;18.758;2023-07-28T13:35:08;0.90;;;0.70;;
37903;SDS011;23738;50.422;18.758;2023-07-28T13:37:38;6.30;;;4.90;;
37903;SDS011;23738;50.422;18.758;2023-07-28T13:40:08;6.10;;;5.00;;
37903;SDS011;23738;50.422;18.758;2023-07-28T13:42:37;8.30;;;6.40;;
37903;SDS011;23738;50.422;18.758;2023-07-28T13:45:08;6.20;;;3.70;;
37903;SDS011;23738;50.422;18.758;2023-07-28T13:47:37;2.20;;;2.00;;
37903;SDS011;23738;50.422;18.758;2023-07-28T13:50:07;7.20;;;2.80;;
37903;SDS011;23738;50.422;18.758;2023-07-28T13:52:37;2.00;;;1.30;;
37903;SDS011;23738;50.422;18.758;2023-07-28T13:55:07;1.40;;;1.10;;
37903;SDS011;23738;50.422;18.758;2023-07-28T13:57:38;4.80;;;3.40;;
37903;SDS011;23738;50.422;18.758;2023-07-28T14:00:09;3.70;;;2.40;;
37903;SDS011;23738;50.422;18.758;2023-07-28T14:02:39;4.40;;;3.40;;
37903;SDS011;23738;50.422;18.758;2023-07-28T14:05:09;3.20;;;2.20;;
37903;SDS011;23738;50.422;18.758;2023-07-28T14:07:38;3.90;;;2.50;;
37903;SDS011;23738;50.422;18.758;2023-07-28T14:10:09;1.70;;;1.10;;
37903;SDS011;23738;50.422;18.758;2023-07-28T14:12:38;2.50;;;2.00;;
37903;SDS011;23738;50.422;18.758;2023-07-28T14:15:09;2.80;;;1.00;;
37903;SDS011;23738;50.422;18.758;2023-07-28T14:17:38;3.10;;;1.90;;
37903;SDS011;23738;50.422;18.758;2023-07-28T14:20:09;1.30;;;1.10;;
37903;SDS011;23738;50.422;18.758;2023-07-28T14:22:39;3.50;;;0.80;;
37903;SDS011;23738;50.422;18.758;2023-07-28T14:25:08;2.10;;;0.80;;
37903;SDS011;23738;50.422;18.758;2023-07-28T14:27:38;1.80;;;1.40;;
37903;SDS011;23738;50.422;18.758;2023-07-28T14:30:08;1.90;;;1.30;;
37903;SDS011;23738;50.422;18.758;2023-07-28T14:32:38;1.30;;;1.10;;
37903;SDS011;23738;50.422;18.758;2023-07-28T14:35:08;1.80;;;1.00;;
37903;SDS011;23738;50.422;18.758;2023-07-28T14:37:37;1.50;;;1.00;;
37903;SDS011;23738;50.422;18.758;2023-07-28T14:40:08;2.00;;;0.70;;
37903;SDS011;23738;50.422;18.758;2023-07-28T14:42:38;0.60;;;0.40;;
37903;SDS011;23738;50.422;18.758;2023-07-28T14:45:08;2.00;;;0.60;;
37903;SDS011;23738;50.422;18.758;2023-07-28T14:47:38;1.10;;;0.70;;
37903;SDS011;23738;50.422;18.758;2023-07-28T14:50:08;1.30;;;0.90;;